Time;durP1;ratioP1;P1;durP2;ratioP2;P2;SDS_P1;SDS_P2;PMS_P1;PMS_P2;Temp;Humidity;BMP_temperature;BMP_pressure;BME280_temperature;BME280_humidity;BME280_pressure;Samples;Min_cycle;Max_cycle;Signal;HPM_P1;HPM_P2
2022/02/06 00:01:19;;;;;;;6.95;1.98;;;2.20;99.90;;;;;;5052577;28;20033;-71
2022/02/06 00:03:45;;;;;;;7.43;1.90;;;2.20;99.90;;;;;;5053154;28;20036;-71
2022/02/06 00:06:10;;;;;;;4.03;1.40;;;2.20;99.90;;;;;;5052384;28;20033;-71
2022/02/06 00:08:38;;;;;;;5.45;1.60;;;2.20;99.90;;;;;;5053191;28;20052;-70
2022/02/06 00:11:05;;;;;;;9.35;1.83;;;2.10;99.90;;;;;;5052567;28;20025;-71
2022/02/06 00:13:30;;;;;;;13.40;1.88;;;2.20;99.90;;;;;;5051720;28;20385;-71
2022/02/06 00:15:56;;;;;;;8.88;2.10;;;2.20;99.90;;;;;;5052744;28;20025;-71
2022/02/06 00:18:22;;;;;;;3.95;1.40;;;2.20;99.90;;;;;;5052025;28;20029;-72
2022/02/06 00:20:54;;;;;;;5.43;1.80;;;2.10;99.90;;;;;;5053088;28;20136;-72
2022/02/06 00:23:23;;;;;;;6.18;1.75;;;2.10;99.90;;;;;;5032121;28;20116;-73
2022/02/06 00:28:22;;;;;;;11.25;1.30;;;2.10;99.90;;;;;;5051987;28;20032;-72
2022/02/06 00:30:58;;;;;;;6.45;1.60;;;2.10;99.90;;;;;;5052278;28;20404;-72
2022/02/06 00:43:20;;;;;;;5.13;1.43;;;2.10;99.90;;;;;;5051847;28;20035;-71
2022/02/06 00:45:46;;;;;;;3.55;1.48;;;2.10;99.90;;;;;;5052073;28;20033;-71
2022/02/06 00:48:13;;;;;;;6.50;1.55;;;2.10;99.90;;;;;;5051338;28;20414;-72
2022/02/06 00:50:44;;;;;;;6.72;1.50;;;2.10;99.90;;;;;;5052386;28;20033;-72
2022/02/06 00:53:16;;;;;;;6.80;1.92;;;2.10;99.90;;;;;;5051564;28;20051;-72
2022/02/06 00:55:42;;;;;;;7.72;1.90;;;2.20;99.90;;;;;;5052126;28;20055;-72
2022/02/06 00:58:08;;;;;;;9.98;1.77;;;2.20;99.90;;;;;;5051279;28;20104;-70
2022/02/06 01:00:33;;;;;;;7.80;1.85;;;2.20;99.90;;;;;;5052747;28;20033;-72
2022/02/06 01:02:59;;;;;;;5.65;1.55;;;2.30;99.90;;;;;;5052637;28;20071;-72
2022/02/06 01:05:25;;;;;;;7.60;1.83;;;2.30;99.90;;;;;;5051576;28;20120;-72
2022/02/06 01:07:52;;;;;;;9.38;2.83;;;2.30;99.90;;;;;;5051811;28;20032;-72
2022/02/06 01:10:18;;;;;;;8.38;1.40;;;2.40;99.90;;;;;;5051258;28;20086;-70
2022/02/06 01:12:50;;;;;;;5.20;1.60;;;2.40;99.90;;;;;;5051543;28;20123;-70
2022/02/06 01:15:21;;;;;;;8.32;1.73;;;2.40;99.90;;;;;;5051054;28;20055;-71
2022/02/06 01:17:54;;;;;;;8.48;1.75;;;2.50;99.90;;;;;;5051992;28;20037;-71
2022/02/06 01:20:37;;;;;;;6.55;1.50;;;2.50;99.90;;;;;;5051095;28;20072;-72
2022/02/06 01:23:44;;;;;;;7.43;1.58;;;2.50;99.90;;;;;;5051216;28;20394;-67
2022/02/06 01:26:05;;;;;;;6.43;1.45;;;2.40;99.90;;;;;;5051416;28;20479;-70
2022/02/06 01:28:39;;;;;;;4.68;1.52;;;2.50;99.90;;;;;;5051957;28;20394;-70
2022/02/06 01:31:30;;;;;;;13.20;1.95;;;2.60;99.90;;;;;;5050265;28;20458;-67
2022/02/06 01:33:59;;;;;;;7.50;1.48;;;2.50;99.90;;;;;;5052017;28;20037;-72
2022/02/06 01:36:45;;;;;;;9.80;1.52;;;2.50;99.90;;;;;;5050712;28;20514;-72
2022/02/06 01:41:46;;;;;;;7.63;1.63;;;2.50;99.90;;;;;;5051597;28;20032;-70
2022/02/06 01:44:43;;;;;;;3.80;1.27;;;2.50;99.90;;;;;;5031059;28;20029;-70
2022/02/06 02:19:58;;;;;;;7.18;1.15;;;3.10;99.90;;;;;;5049504;28;20131;-72
2022/02/06 02:44:35;;;;;;;6.70;1.20;;;2.90;99.90;;;;;;5054988;28;20035;-71
2022/02/06 02:46:52;;;;;;;5.00;1.15;;;2.90;99.90;;;;;;5054242;28;20028;-71
2022/02/06 02:49:21;;;;;;;8.23;1.55;;;2.90;99.90;;;;;;5053677;28;20435;-71
2022/02/06 02:51:48;;;;;;;2.92;1.40;;;2.90;99.90;;;;;;5054609;28;20032;-71
2022/02/06 02:54:22;;;;;;;8.13;1.42;;;2.90;99.90;;;;;;5053957;28;20025;-71
2022/02/06 02:57:01;;;;;;;4.28;1.48;;;2.90;99.90;;;;;;5053787;28;20060;-71
2022/02/06 02:59:39;;;;;;;8.50;1.23;;;3.00;99.90;;;;;;5053516;28;20541;-71
2022/02/06 03:02:06;;;;;;;5.18;1.00;;;3.10;99.90;;;;;;5054547;28;20504;-68
2022/02/06 03:04:32;;;;;;;5.53;2.20;;;3.10;99.90;;;;;;5053915;28;20083;-71
2022/02/06 03:06:58;;;;;;;5.47;1.65;;;3.10;99.90;;;;;;5054166;28;20094;-71
2022/02/06 03:09:24;;;;;;;6.30;1.42;;;3.10;99.90;;;;;;5053132;28;20405;-71
2022/02/06 03:11:50;;;;;;;6.90;1.50;;;3.10;99.90;;;;;;5054211;28;20029;-71
2022/02/06 03:14:22;;;;;;;8.00;1.40;;;3.10;99.90;;;;;;5053663;28;20029;-71
2022/02/06 03:16:51;;;;;;;9.68;1.90;;;3.10;99.90;;;;;;5054350;28;20021;-71
2022/02/06 03:19:19;;;;;;;7.60;1.73;;;3.10;99.90;;;;;;5052997;28;20477;-71
2022/02/06 03:21:46;;;;;;;6.07;1.10;;;3.10;99.90;;;;;;5053007;28;20041;-71
2022/02/06 03:24:24;;;;;;;8.10;1.40;;;3.10;99.90;;;;;;5052072;28;20362;-70
2022/02/06 03:26:55;;;;;;;8.05;1.45;;;3.10;99.90;;;;;;5049861;28;20024;-70
2022/02/06 03:29:24;;;;;;;2.40;0.93;;;3.10;99.90;;;;;;5052146;28;20048;-71
2022/02/06 03:31:51;;;;;;;4.38;1.23;;;3.10;99.90;;;;;;5050187;28;20027;-71
2022/02/06 03:34:18;;;;;;;6.47;1.10;;;3.00;99.90;;;;;;5052113;28;20027;-72
2022/02/06 03:36:43;;;;;;;7.30;0.95;;;3.00;99.90;;;;;;5052292;28;20096;-71
2022/02/06 03:39:10;;;;;;;3.65;0.95;;;3.00;99.90;;;;;;5051407;28;20112;-68
2022/02/06 03:42:14;;;;;;;5.07;1.00;;;3.00;99.90;;;;;;5052172;28;20482;-71
2022/02/06 03:44:38;;;;;;;4.25;1.13;;;3.00;99.90;;;;;;5048284;28;20024;-71
2022/02/06 03:47:08;;;;;;;10.10;1.40;;;3.00;99.90;;;;;;5051923;28;20382;-71
2022/02/06 03:49:46;;;;;;;3.78;1.17;;;3.00;99.90;;;;;;5050166;28;20029;-70
2022/02/06 03:52:12;;;;;;;9.88;1.30;;;2.90;99.90;;;;;;5048950;28;20035;-71
2022/02/06 03:54:38;;;;;;;5.78;1.50;;;2.90;99.90;;;;;;5051308;28;20120;-70
2022/02/06 03:57:04;;;;;;;8.13;1.00;;;2.90;99.90;;;;;;5052231;28;20132;-71
2022/02/06 03:59:31;;;;;;;2.97;0.80;;;3.00;99.90;;;;;;5051568;28;20465;-71
2022/02/06 04:01:57;;;;;;;2.78;0.93;;;3.00;99.90;;;;;;5052352;28;20412;-70
2022/02/06 04:04:23;;;;;;;8.27;0.90;;;3.00;99.90;;;;;;5050964;28;20021;-71
2022/02/06 04:06:48;;;;;;;9.23;1.10;;;3.00;99.90;;;;;;5052025;28;20441;-71
2022/02/06 04:09:19;;;;;;;7.65;1.50;;;3.00;99.90;;;;;;5051316;28;20025;-70
2022/02/06 04:11:49;;;;;;;4.13;1.25;;;3.10;99.90;;;;;;5050782;28;20033;-71
2022/02/06 04:14:25;;;;;;;5.78;1.77;;;3.20;99.90;;;;;;5051228;28;20033;-71
2022/02/06 04:16:55;;;;;;;10.27;1.70;;;3.30;99.90;;;;;;5049116;28;20078;-71
2022/02/06 04:19:27;;;;;;;4.68;1.10;;;3.30;99.90;;;;;;5051348;28;20025;-71
2022/02/06 04:21:57;;;;;;;4.07;1.20;;;3.40;99.90;;;;;;5048137;28;20470;-72
2022/02/06 04:24:24;;;;;;;2.55;0.80;;;3.40;99.90;;;;;;5051299;28;20013;-71
2022/02/06 04:26:52;;;;;;;6.47;1.30;;;3.40;99.90;;;;;;5049302;28;20033;-72
2022/02/06 04:29:18;;;;;;;4.18;0.77;;;3.40;99.90;;;;;;5051937;28;20402;-71
2022/02/06 04:31:46;;;;;;;5.50;0.95;;;3.50;99.90;;;;;;5052562;28;20461;-71
2022/02/06 04:34:14;;;;;;;7.60;1.20;;;3.60;99.90;;;;;;5052125;28;20021;-71
2022/02/06 04:36:49;;;;;;;10.20;1.30;;;3.70;99.90;;;;;;5052388;28;20032;-71
2022/02/06 04:42:04;;;;;;;4.05;0.98;;;3.80;99.90;;;;;;5052340;28;20033;-70
2022/02/06 04:52:53;;;;;;;7.32;0.95;;;3.90;99.90;;;;;;5051554;28;20040;-71
2022/02/06 05:12:26;;;;;;;5.90;1.98;;;4.30;99.90;;;;;;5031719;28;20035;-70
2022/02/06 05:17:18;;;;;;;2.90;1.23;;;4.30;99.90;;;;;;5041889;28;20061;-70
2022/02/06 05:22:42;;;;;;;7.40;1.40;;;4.30;99.90;;;;;;5050782;28;20035;-70
2022/02/06 05:30:30;;;;;;;7.28;1.73;;;4.40;99.90;;;;;;5051174;28;20055;-70
2022/02/06 05:35:22;;;;;;;5.07;1.10;;;4.40;99.90;;;;;;5051087;28;20115;-71
2022/02/06 05:37:48;;;;;;;7.03;1.13;;;4.40;99.90;;;;;;5051241;28;20025;-71
2022/02/06 05:40:15;;;;;;;7.07;1.40;;;4.30;99.90;;;;;;5050948;28;20060;-70
2022/02/06 05:42:42;;;;;;;6.18;1.40;;;4.30;99.90;;;;;;5051509;28;20462;-72
2022/02/06 05:45:09;;;;;;;11.82;1.35;;;4.30;99.90;;;;;;5051406;28;20400;-68
2022/02/06 05:47:35;;;;;;;6.70;1.33;;;4.40;99.90;;;;;;5051023;28;20021;-71
2022/02/06 05:50:01;;;;;;;5.93;1.00;;;4.40;99.90;;;;;;5051246;28;20078;-71
2022/02/06 05:52:27;;;;;;;9.63;1.50;;;4.40;99.90;;;;;;5050910;28;20031;-72
2022/02/06 05:54:53;;;;;;;4.35;1.15;;;4.40;99.90;;;;;;5051369;28;20025;-73
2022/02/06 05:57:19;;;;;;;6.50;1.35;;;4.40;99.90;;;;;;5050528;28;20486;-72
2022/02/06 05:59:44;;;;;;;5.10;1.10;;;4.40;99.90;;;;;;5050927;28;20116;-73
2022/02/06 06:02:10;;;;;;;5.57;1.23;;;4.50;99.90;;;;;;5051057;28;20078;-68
2022/02/06 06:04:36;;;;;;;2.90;1.00;;;4.50;99.90;;;;;;5050908;28;20028;-72
2022/02/06 06:07:03;;;;;;;7.10;1.00;;;4.50;99.90;;;;;;5051313;28;20032;-73
2022/02/06 06:09:29;;;;;;;5.20;1.10;;;4.60;99.90;;;;;;5050751;28;20044;-72
2022/02/06 06:11:54;;;;;;;6.45;0.90;;;4.60;99.90;;;;;;5051056;28;20033;-69
2022/02/06 06:14:20;;;;;;;6.38;1.48;;;4.70;99.90;;;;;;5050227;28;20489;-71
2022/02/06 06:16:46;;;;;;;7.20;1.13;;;4.70;99.90;;;;;;5051720;28;20044;-72
2022/02/06 06:19:13;;;;;;;6.35;1.13;;;4.70;99.90;;;;;;5054988;28;20025;-68
2022/02/06 06:21:42;;;;;;;8.20;1.38;;;4.70;99.90;;;;;;5054962;28;20041;-71
2022/02/06 06:24:08;;;;;;;6.23;1.20;;;4.70;99.90;;;;;;5055291;28;20071;-71
2022/02/06 06:26:38;;;;;;;8.52;1.52;;;4.70;99.90;;;;;;5054198;28;20271;-72
2022/02/06 06:29:04;;;;;;;6.63;1.00;;;4.60;99.90;;;;;;5055150;28;20029;-73
2022/02/06 06:31:30;;;;;;;8.93;1.30;;;4.70;99.90;;;;;;5054108;28;20053;-71
2022/02/06 06:33:56;;;;;;;6.63;1.00;;;4.60;99.90;;;;;;5055055;28;20063;-71
2022/02/06 06:36:21;;;;;;;6.50;1.30;;;4.70;99.90;;;;;;5053748;28;20029;-71
2022/02/06 06:38:50;;;;;;;7.25;1.75;;;4.60;99.90;;;;;;5055042;28;20037;-72
2022/02/06 06:41:15;;;;;;;6.93;1.20;;;4.60;99.90;;;;;;5052945;28;20082;-71
2022/02/06 06:43:41;;;;;;;3.05;0.90;;;4.60;99.90;;;;;;5054432;28;20025;-73
2022/02/06 06:46:07;;;;;;;7.40;1.45;;;4.70;99.90;;;;;;5054264;28;20021;-72
2022/02/06 06:48:33;;;;;;;7.43;1.50;;;4.60;99.90;;;;;;5050032;28;20032;-72
2022/02/06 06:50:58;;;;;;;8.02;1.08;;;4.60;99.90;;;;;;5034893;28;20037;-72
2022/02/06 06:53:24;;;;;;;5.90;1.30;;;4.60;99.90;;;;;;5033841;28;20040;-72
2022/02/06 06:55:57;;;;;;;4.60;1.10;;;4.60;99.90;;;;;;5034631;28;20410;-72
2022/02/06 06:58:28;;;;;;;5.47;1.73;;;4.60;99.90;;;;;;5050106;28;20040;-72
2022/02/06 07:03:40;;;;;;;4.72;1.23;;;4.60;99.90;;;;;;5052973;28;20037;-69
2022/02/06 07:06:05;;;;;;;7.60;1.10;;;4.60;99.90;;;;;;5043522;28;20021;-72
2022/02/06 07:08:31;;;;;;;5.32;1.42;;;4.60;99.90;;;;;;5052244;28;20021;-70
2022/02/06 07:10:57;;;;;;;9.88;1.30;;;4.70;99.90;;;;;;5053023;28;20589;-72
2022/02/06 07:13:22;;;;;;;4.05;1.17;;;4.70;99.90;;;;;;5051759;28;20032;-72
2022/02/06 07:15:48;;;;;;;7.15;1.13;;;4.70;99.90;;;;;;5049180;28;20032;-72
2022/02/06 07:18:14;;;;;;;9.65;1.23;;;4.80;99.90;;;;;;5051069;28;20120;-70
2022/02/06 07:20:40;;;;;;;5.03;1.17;;;4.80;99.90;;;;;;5052079;28;20086;-72
2022/02/06 07:23:08;;;;;;;4.72;1.20;;;4.80;99.90;;;;;;5052174;28;20021;-72
2022/02/06 07:25:36;;;;;;;5.30;1.20;;;4.80;99.90;;;;;;5050891;28;20748;-71
2022/02/06 07:28:02;;;;;;;8.30;1.10;;;4.80;99.90;;;;;;5049044;28;20454;-72
2022/02/06 07:30:28;;;;;;;4.00;1.05;;;4.90;99.90;;;;;;5051684;28;20025;-70
2022/02/06 07:32:53;;;;;;;7.15;2.40;;;4.80;99.90;;;;;;5051494;28;20120;-71
2022/02/06 07:35:20;;;;;;;11.38;1.88;;;4.90;99.90;;;;;;5052765;28;20099;-73
2022/02/06 07:37:49;;;;;;;6.38;1.40;;;5.00;99.90;;;;;;5051961;28;20052;-72
2022/02/06 07:40:15;;;;;;;4.07;1.02;;;5.00;99.90;;;;;;5044988;28;20444;-69
2022/02/06 07:42:41;;;;;;;8.40;1.50;;;5.10;99.90;;;;;;5053735;28;20029;-72
2022/02/06 07:45:09;;;;;;;6.13;1.70;;;5.10;99.90;;;;;;5053808;28;20458;-72
2022/02/06 07:47:36;;;;;;;10.93;1.58;;;5.10;99.90;;;;;;5050941;28;20105;-73
2022/02/06 07:50:04;;;;;;;4.05;1.25;;;5.20;99.90;;;;;;5053433;28;20108;-73
2022/02/06 07:52:29;;;;;;;5.70;1.13;;;5.20;99.90;;;;;;5052761;28;20159;-73
2022/02/06 07:54:56;;;;;;;6.68;1.52;;;5.30;99.90;;;;;;5053312;28;20104;-77
2022/02/06 07:57:22;;;;;;;7.30;1.20;;;5.30;99.90;;;;;;5041929;28;20045;-72
2022/02/06 07:59:48;;;;;;;7.68;1.00;;;5.40;99.90;;;;;;5053390;28;20132;-73
2022/02/06 08:02:15;;;;;;;5.68;1.67;;;5.40;99.90;;;;;;5036255;28;20025;-72
2022/02/06 08:04:43;;;;;;;4.60;1.00;;;5.40;99.90;;;;;;5048159;28;20087;-83
2022/02/06 08:07:09;;;;;;;5.28;1.40;;;5.40;99.90;;;;;;5050073;28;20024;-77
2022/02/06 08:12:11;;;;;;;4.80;1.50;;;5.50;99.90;;;;;;5034166;28;20030;-79
2022/02/06 08:14:54;;;;;;;6.00;1.30;;;5.60;99.90;;;;;;5051542;28;20075;-77
2022/02/06 08:17:26;;;;;;;5.82;1.27;;;5.70;99.90;;;;;;5032458;28;20025;-84
2022/02/06 08:19:52;;;;;;;6.25;1.10;;;5.80;99.90;;;;;;5033492;28;20104;-70
2022/02/06 08:22:20;;;;;;;5.38;1.17;;;5.70;99.90;;;;;;5031800;28;20033;-74
2022/02/06 08:24:46;;;;;;;6.18;1.20;;;5.80;99.90;;;;;;5034380;28;20025;-71
2022/02/06 08:27:12;;;;;;;5.07;1.10;;;5.80;99.90;;;;;;5053074;28;20024;-72
2022/02/06 08:29:40;;;;;;;7.75;1.90;;;5.80;99.90;;;;;;5038335;28;20104;-71
2022/02/06 08:32:06;;;;;;;7.47;1.05;;;5.80;99.90;;;;;;5028374;28;20108;-68
2022/02/06 08:34:33;;;;;;;7.00;1.50;;;5.90;99.90;;;;;;5046687;28;20029;-69
2022/02/06 08:37:02;;;;;;;7.03;1.42;;;5.80;99.90;;;;;;5050462;28;20083;-71
2022/02/06 08:39:30;;;;;;;7.88;1.15;;;6.00;99.90;;;;;;5050678;28;20083;-70
2022/02/06 08:41:55;;;;;;;7.95;1.52;;;6.00;99.90;;;;;;5040408;28;20052;-70
2022/02/06 08:44:21;;;;;;;4.47;1.17;;;6.10;99.90;;;;;;5051810;28;20032;-70
2022/02/06 08:46:47;;;;;;;10.80;1.40;;;6.20;99.90;;;;;;5054289;28;20388;-70
2022/02/06 08:49:14;;;;;;;6.93;1.25;;;6.30;99.90;;;;;;5053708;28;20025;-72
2022/02/06 08:51:40;;;;;;;12.70;1.30;;;6.30;99.90;;;;;;5056378;28;20060;-71
2022/02/06 08:54:05;;;;;;;6.28;1.20;;;6.40;99.90;;;;;;5072148;28;20052;-73
2022/02/06 08:56:33;;;;;;;6.07;1.83;;;6.50;99.90;;;;;;5056419;28;20057;-71
2022/02/06 08:58:58;;;;;;;5.18;0.90;;;6.60;99.90;;;;;;5052401;28;20028;-72
2022/02/06 09:01:24;;;;;;;6.50;1.13;;;6.70;99.90;;;;;;5051306;28;20135;-71
2022/02/06 09:03:50;;;;;;;8.07;1.40;;;6.70;99.90;;;;;;5051654;28;20439;-71
2022/02/06 09:06:15;;;;;;;3.45;0.95;;;6.70;99.90;;;;;;5050894;28;20474;-68
2022/02/06 09:08:42;;;;;;;1.95;0.90;;;6.70;99.90;;;;;;5051571;28;20040;-72
2022/02/06 09:11:07;;;;;;;5.28;1.10;;;6.80;99.90;;;;;;5052180;28;20090;-71
2022/02/06 09:13:33;;;;;;;8.10;1.08;;;6.90;99.90;;;;;;5051435;28;20459;-71
2022/02/06 09:15:59;;;;;;;5.05;1.58;;;6.90;99.90;;;;;;5051283;28;20375;-72
2022/02/06 09:18:25;;;;;;;5.25;1.52;;;6.90;99.90;;;;;;5051188;28;20056;-71
2022/02/06 09:20:50;;;;;;;9.45;1.17;;;6.90;99.90;;;;;;5051858;28;20037;-71
2022/02/06 09:23:16;;;;;;;6.10;1.50;;;6.80;99.90;;;;;;5051346;28;20055;-68
2022/02/06 09:25:41;;;;;;;5.72;1.38;;;6.80;99.90;;;;;;5050707;28;20039;-70
2022/02/06 09:28:07;;;;;;;8.55;1.17;;;6.90;99.90;;;;;;5052036;28;20096;-72
2022/02/06 09:30:32;;;;;;;4.10;1.20;;;6.80;99.90;;;;;;5050570;28;20115;-70
2022/02/06 09:35:24;;;;;;;4.60;1.10;;;6.80;99.90;;;;;;5050728;28;20453;-70
2022/02/06 09:37:51;;;;;;;6.43;0.90;;;6.80;99.90;;;;;;5051867;28;20086;-69
2022/02/06 09:40:17;;;;;;;7.20;1.27;;;6.70;99.90;;;;;;5051458;28;20048;-68
2022/02/06 09:42:49;;;;;;;7.07;1.02;;;6.80;99.90;;;;;;5051350;28;20102;-70
2022/02/06 09:45:15;;;;;;;5.30;1.17;;;6.90;99.90;;;;;;5051334;28;20108;-71
2022/02/06 09:47:44;;;;;;;7.90;1.48;;;7.00;99.90;;;;;;5051176;28;20029;-70
2022/02/06 09:50:10;;;;;;;2.40;0.82;;;7.10;99.90;;;;;;5051497;28;20025;-70
2022/02/06 09:52:39;;;;;;;6.57;0.95;;;7.00;99.90;;;;;;5053398;28;20029;-70
2022/02/06 09:55:16;;;;;;;6.07;1.30;;;6.90;99.90;;;;;;5054533;28;20131;-71
2022/02/06 09:57:54;;;;;;;3.65;1.00;;;6.90;99.90;;;;;;5055220;28;20059;-70
2022/02/06 10:00:22;;;;;;;7.68;1.30;;;7.00;99.90;;;;;;5055068;28;20025;-70
2022/02/06 10:02:51;;;;;;;8.88;1.50;;;7.20;99.90;;;;;;5055429;28;20106;-72
2022/02/06 10:05:17;;;;;;;9.88;1.15;;;7.30;99.90;;;;;;5055071;28;20029;-68
2022/02/06 10:07:52;;;;;;;4.88;1.08;;;7.30;99.90;;;;;;5055066;28;20029;-72
2022/02/06 10:10:19;;;;;;;5.88;1.60;;;7.40;99.90;;;;;;5055202;28;20136;-67
2022/02/06 10:12:46;;;;;;;6.35;1.17;;;7.40;99.90;;;;;;5055570;28;20033;-72
2022/02/06 10:15:14;;;;;;;8.38;1.23;;;7.40;99.90;;;;;;5055003;28;20031;-72
2022/02/06 10:17:40;;;;;;;3.80;0.88;;;7.40;99.90;;;;;;5054641;28;20021;-70
2022/02/06 10:20:14;;;;;;;10.07;1.20;;;7.40;99.90;;;;;;5055157;28;20031;-71
2022/02/06 10:22:50;;;;;;;4.57;0.80;;;7.50;99.90;;;;;;5054602;28;20100;-72
2022/02/06 10:25:17;;;;;;;9.40;1.52;;;7.50;99.90;;;;;;5054618;28;20466;-71
2022/02/06 10:30:37;;;;;;;6.63;1.08;;;7.50;99.90;;;;;;5056454;28;20090;-71
2022/02/06 10:33:15;;;;;;;7.63;1.27;;;7.60;99.90;;;;;;5044465;28;20516;-72
2022/02/06 10:35:43;;;;;;;7.25;1.50;;;7.60;99.90;;;;;;5054936;28;20029;-72
2022/02/06 10:38:18;;;;;;;5.53;1.20;;;7.60;99.90;;;;;;5055488;28;20098;-72
2022/02/06 10:41:00;;;;;;;2.97;0.75;;;7.60;99.90;;;;;;5054882;28;20132;-71
2022/02/06 10:43:26;;;;;;;3.70;1.00;;;7.80;99.90;;;;;;5054545;28;20108;-72
2022/02/06 10:46:13;;;;;;;7.88;1.55;;;7.80;99.90;;;;;;5055258;28;20445;-72
2022/02/06 10:48:55;;;;;;;5.53;1.10;;;7.80;99.90;;;;;;5054726;28;20476;-72
2022/02/06 10:51:43;;;;;;;3.13;1.15;;;7.70;99.90;;;;;;5054015;28;20505;-69
2022/02/06 10:54:31;;;;;;;2.00;1.25;;;7.80;99.90;;;;;;5054863;28;20104;-70
2022/02/06 10:57:02;;;;;;;6.15;1.08;;;7.90;99.90;;;;;;5054770;28;20056;-71
2022/02/06 10:59:29;;;;;;;5.57;1.38;;;8.00;99.90;;;;;;5054164;28;20486;-71
2022/02/06 11:01:55;;;;;;;2.92;0.82;;;8.10;99.90;;;;;;5054538;28;20397;-70
2022/02/06 11:04:33;;;;;;;6.07;0.80;;;8.20;99.90;;;;;;5053720;28;20021;-70
2022/02/06 11:07:19;;;;;;;6.53;1.05;;;8.30;99.90;;;;;;5054728;28;20091;-71
2022/02/06 11:09:48;;;;;;;10.20;1.10;;;8.30;99.90;;;;;;5054298;28;20155;-71
2022/02/06 11:12:23;;;;;;;5.10;1.05;;;8.20;99.90;;;;;;5054775;28;20029;-71
2022/02/06 11:14:52;;;;;;;3.58;1.10;;;8.30;99.90;;;;;;5054514;28;20120;-71
2022/02/06 11:17:26;;;;;;;6.75;1.02;;;8.20;99.90;;;;;;5054724;28;20033;-71
2022/02/06 11:20:10;;;;;;;6.43;1.17;;;8.20;99.90;;;;;;5054617;28;20029;-71
2022/02/06 11:22:38;;;;;;;4.82;1.15;;;8.20;99.90;;;;;;5054085;28;20437;-72
2022/02/06 11:25:07;;;;;;;3.65;0.95;;;8.10;99.90;;;;;;5054448;28;20080;-71
2022/02/06 11:27:33;;;;;;;8.35;1.13;;;8.10;99.90;;;;;;5053765;28;20112;-71
2022/02/06 11:30:00;;;;;;;7.60;1.00;;;8.00;99.90;;;;;;5054505;28;20144;-71
2022/02/06 11:32:27;;;;;;;3.33;0.95;;;8.00;99.90;;;;;;5053530;28;20028;-70
2022/02/06 11:34:54;;;;;;;5.80;1.00;;;8.00;99.90;;;;;;5054178;28;20037;-72
2022/02/06 11:46:18;;;;;;;3.63;1.08;;;8.30;99.90;;;;;;5054335;28;20035;-72
2022/02/06 11:48:46;;;;;;;6.35;0.95;;;8.40;99.90;;;;;;5053458;28;20052;-70
2022/02/06 11:51:19;;;;;;;2.60;0.70;;;8.40;99.90;;;;;;5053641;28;20061;-70
2022/02/06 11:53:46;;;;;;;3.40;1.05;;;8.40;99.90;;;;;;5052523;28;20396;-71
2022/02/06 11:56:22;;;;;;;5.40;1.23;;;8.50;99.90;;;;;;5053854;28;20044;-71
2022/02/06 11:59:02;;;;;;;4.40;2.53;;;8.50;99.90;;;;;;5053648;28;20029;-71
2022/02/06 12:01:31;;;;;;;6.20;4.05;;;8.40;99.90;;;;;;5052044;28;20045;-71
2022/02/06 12:04:03;;;;;;;3.00;0.73;;;8.40;99.90;;;;;;5053255;28;20120;-70
2022/02/06 12:06:36;;;;;;;5.50;1.13;;;8.50;99.90;;;;;;5052918;28;20087;-69
2022/02/06 12:09:02;;;;;;;3.88;0.98;;;8.50;99.90;;;;;;5053367;28;20033;-70
2022/02/06 12:11:29;;;;;;;3.88;1.40;;;8.50;99.90;;;;;;5053188;28;20036;-69
2022/02/06 12:14:24;;;;;;;4.00;0.85;;;8.50;99.90;;;;;;5052862;28;20462;-70
2022/02/06 12:19:43;;;;;;;2.22;1.17;;;8.50;99.90;;;;;;5053437;28;20037;-70
2022/02/06 12:22:27;;;;;;;3.25;0.80;;;8.50;99.90;;;;;;5053545;28;20052;-68
2022/02/06 12:25:13;;;;;;;3.15;1.25;;;8.50;99.90;;;;;;5053178;28;20029;-70
2022/02/06 12:27:39;;;;;;;3.38;0.73;;;8.60;99.90;;;;;;5052840;28;20028;-69
2022/02/06 12:30:07;;;;;;;5.75;0.70;;;8.60;99.90;;;;;;5053041;28;20044;-70
2022/02/06 12:32:35;;;;;;;2.70;0.60;;;8.60;99.90;;;;;;5052259;28;20381;-70
2022/02/06 12:37:56;;;;;;;1.20;0.60;;;8.40;99.90;;;;;;5052502;28;20128;-70
2022/02/06 12:40:24;;;;;;;2.40;0.57;;;8.50;99.90;;;;;;5052417;28;20053;-70
2022/02/06 12:42:58;;;;;;;1.20;0.47;;;8.50;99.90;;;;;;5052751;28;20108;-70
2022/02/06 12:45:25;;;;;;;2.55;0.60;;;8.60;99.90;;;;;;5052766;28;20029;-66
2022/02/06 12:47:56;;;;;;;4.90;1.05;;;8.70;99.90;;;;;;5052760;28;20036;-69
2022/02/06 12:50:30;;;;;;;0.73;0.57;;;8.70;99.90;;;;;;5033079;28;20116;-70
2022/02/06 12:52:56;;;;;;;1.73;0.50;;;8.70;99.90;;;;;;5050846;28;20112;-70
2022/02/06 12:55:27;;;;;;;3.20;0.70;;;8.70;99.90;;;;;;5052559;28;20108;-69
2022/02/06 12:57:54;;;;;;;2.28;0.38;;;8.60;99.90;;;;;;5052449;28;20040;-67
2022/02/06 13:00:37;;;;;;;0.90;0.57;;;8.50;99.90;;;;;;5051918;28;20076;-68
2022/02/06 13:03:42;;;;;;;8.68;0.90;;;8.60;99.90;;;;;;5051972;28;20028;-72
2022/02/06 13:06:15;;;;;;;1.02;0.50;;;8.60;99.90;;;;;;5050762;28;20071;-69
2022/02/06 13:08:42;;;;;;;1.05;0.55;;;8.60;99.90;;;;;;5050802;28;20483;-67
2022/02/06 13:11:19;;;;;;;1.85;0.55;;;8.40;99.90;;;;;;5051806;28;20041;-68
2022/02/06 13:14:00;;;;;;;1.83;0.43;;;8.30;99.90;;;;;;5051035;28;20795;-70
2022/02/06 13:16:47;;;;;;;1.52;0.40;;;8.10;99.90;;;;;;5051460;28;20533;-74
2022/02/06 13:19:31;;;;;;;2.47;0.40;;;8.00;99.90;;;;;;5051962;28;20025;-72
2022/02/06 13:22:23;;;;;;;2.83;0.60;;;8.00;99.90;;;;;;5051808;28;20057;-76
2022/02/06 13:38:17;;;;;;;3.83;0.40;;;7.80;99.90;;;;;;5046536;28;20136;-76
2022/02/06 13:40:48;;;;;;;2.95;0.50;;;7.70;99.90;;;;;;5048877;28;20044;-70
2022/02/06 13:43:18;;;;;;;1.20;0.40;;;7.70;99.90;;;;;;5050259;28;20592;-72
2022/02/06 13:45:44;;;;;;;1.77;0.55;;;7.70;99.90;;;;;;5050807;28;20033;-81
2022/02/06 13:48:13;;;;;;;1.52;0.40;;;7.60;99.90;;;;;;5051907;28;20370;-89
2022/02/06 13:50:45;;;;;;;1.40;0.50;;;7.60;99.90;;;;;;5051307;28;20082;-78
2022/02/06 13:53:17;;;;;;;3.83;0.43;;;7.50;99.90;;;;;;5051430;28;20040;-80
2022/02/06 13:55:56;;;;;;;2.10;0.68;;;7.30;99.90;;;;;;5050300;28;20138;-70
2022/02/06 13:58:24;;;;;;;0.63;0.25;;;7.20;99.90;;;;;;5051716;28;20065;-70
2022/02/06 14:01:14;;;;;;;0.90;0.43;;;7.00;99.90;;;;;;5050675;28;20138;-68
2022/02/06 14:03:49;;;;;;;0.98;0.30;;;6.90;99.90;;;;;;5036360;28;20034;-69
2022/02/06 14:06:21;;;;;;;5.88;0.40;;;6.90;99.90;;;;;;5031408;28;20033;-69
2022/02/06 14:09:10;;;;;;;2.47;0.52;;;6.70;99.90;;;;;;5030569;28;20539;-69
2022/02/06 14:11:35;;;;;;;4.53;0.50;;;6.70;99.90;;;;;;5046902;28;20044;-70
2022/02/06 14:14:21;;;;;;;2.00;0.43;;;6.50;99.90;;;;;;5051589;28;20025;-71
2022/02/06 14:16:53;;;;;;;1.77;0.52;;;6.30;99.90;;;;;;5050440;28;20729;-74
2022/02/06 14:19:38;;;;;;;1.10;0.20;;;6.30;99.90;;;;;;5051360;28;20473;-72
2022/02/06 14:22:04;;;;;;;4.22;0.60;;;6.10;99.90;;;;;;5050703;28;20401;-72
2022/02/06 14:24:30;;;;;;;2.35;0.50;;;6.00;99.90;;;;;;5051032;28;20111;-68
2022/02/06 14:27:05;;;;;;;2.58;0.75;;;6.00;99.90;;;;;;5050403;28;20116;-73
2022/02/06 14:29:32;;;;;;;3.53;1.25;;;5.90;99.90;;;;;;5049926;28;20032;-68
2022/02/06 14:32:12;;;;;;;0.93;0.47;;;5.90;99.90;;;;;;5050998;28;20032;-73
2022/02/06 14:34:38;;;;;;;0.50;0.20;;;5.90;99.90;;;;;;5050311;28;20068;-77
2022/02/06 14:37:15;;;;;;;1.45;0.57;;;5.80;99.90;;;;;;5050888;28;20455;-74
2022/02/06 14:40:05;;;;;;;2.40;0.40;;;5.80;99.90;;;;;;5054066;28;20134;-73
2022/02/06 14:42:31;;;;;;;0.43;0.30;;;5.70;99.90;;;;;;5040581;28;20032;-68
2022/02/06 14:45:11;;;;;;;0.98;0.30;;;5.60;99.90;;;;;;5027300;28;20116;-68
2022/02/06 14:47:36;;;;;;;1.37;0.50;;;5.70;99.90;;;;;;5051129;28;20391;-70
2022/02/06 14:50:12;;;;;;;1.30;0.32;;;5.70;99.90;;;;;;5054386;28;20033;-70
2022/02/06 14:52:38;;;;;;;1.42;0.30;;;5.60;99.90;;;;;;5055265;28;20037;-86
2022/02/06 14:55:03;;;;;;;0.55;0.22;;;5.60;99.90;;;;;;5056299;28;20066;-81
2022/02/06 14:57:29;;;;;;;2.80;0.50;;;5.50;99.90;;;;;;5054542;28;20048;-75
2022/02/06 14:59:55;;;;;;;1.95;0.50;;;5.50;99.90;;;;;;5053534;28;20025;-76
2022/02/06 15:02:20;;;;;;;1.23;0.30;;;5.40;99.90;;;;;;5053151;28;20103;-77
2022/02/06 15:04:46;;;;;;;0.75;0.40;;;5.40;99.90;;;;;;5053638;28;20466;-78
2022/02/06 15:07:12;;;;;;;1.65;0.28;;;5.40;99.90;;;;;;5053770;28;20086;-77
2022/02/06 15:09:37;;;;;;;0.95;0.45;;;5.40;99.90;;;;;;5053138;28;20497;-77
2022/02/06 15:12:03;;;;;;;1.02;0.40;;;5.30;99.90;;;;;;5053905;28;20036;-78
2022/02/06 15:14:30;;;;;;;1.67;0.38;;;5.30;99.90;;;;;;5054289;28;20048;-78
2022/02/06 15:16:59;;;;;;;4.28;0.47;;;5.20;99.90;;;;;;5053316;28;20048;-73
2022/02/06 15:19:31;;;;;;;3.25;0.40;;;5.20;99.90;;;;;;5053995;28;20029;-71
2022/02/06 15:21:58;;;;;;;1.63;0.30;;;5.20;99.90;;;;;;5053632;28;20021;-72
2022/02/06 15:24:24;;;;;;;0.88;0.25;;;5.10;99.90;;;;;;5054005;28;20033;-71
2022/02/06 15:26:50;;;;;;;1.02;0.52;;;5.10;99.90;;;;;;5051525;28;20821;-70
2022/02/06 15:29:15;;;;;;;2.47;0.40;;;5.00;99.90;;;;;;5053809;28;20020;-71
2022/02/06 15:31:41;;;;;;;1.08;0.22;;;5.00;99.90;;;;;;5052417;28;20037;-69
2022/02/06 15:34:08;;;;;;;1.02;0.25;;;5.00;99.90;;;;;;5053220;28;20421;-73
2022/02/06 15:36:36;;;;;;;0.32;0.20;;;4.90;99.90;;;;;;5053148;28;20037;-69
2022/02/06 15:39:13;;;;;;;0.40;0.28;;;5.00;99.90;;;;;;5053410;28;20037;-69
2022/02/06 15:41:40;;;;;;;0.65;0.30;;;5.00;99.90;;;;;;5052811;28;20098;-69